sensor_id;sensor_type;location;lat;lon;timestamp;P1;durP1;ratioP1;P2;durP2;ratioP2
66012;SDS011;52783;50.502;8.190;2022-09-29T00:01:51;6.10;;;3.75;;
66012;SDS011;52783;50.502;8.190;2022-09-29T00:04:16;4.57;;;3.55;;
66012;SDS011;52783;50.502;8.190;2022-09-29T00:06:42;4.60;;;3.38;;
66012;SDS011;52783;50.502;8.190;2022-09-29T00:09:07;4.28;;;3.38;;
66012;SDS011;52783;50.502;8.190;2022-09-29T00:11:33;4.32;;;3.47;;
66012;SDS011;52783;50.502;8.190;2022-09-29T00:13:58;6.88;;;3.42;;
66012;SDS011;52783;50.502;8.190;2022-09-29T00:16:24;5.03;;;3.30;;
66012;SDS011;52783;50.502;8.190;2022-09-29T00:18:52;6.45;;;3.92;;
66012;SDS011;52783;50.502;8.190;2022-09-29T00:21:18;6.32;;;3.92;;
66012;SDS011;52783;50.502;8.190;2022-09-29T00:23:44;6.18;;;3.70;;
66012;SDS011;52783;50.502;8.190;2022-09-29T00:26:21;4.13;;;3.53;;
66012;SDS011;52783;50.502;8.190;2022-09-29T00:28:52;5.10;;;4.00;;
66012;SDS011;52783;50.502;8.190;2022-09-29T00:31:22;4.72;;;3.72;;
66012;SDS011;52783;50.502;8.190;2022-09-29T00:33:50;4.90;;;3.83;;
66012;SDS011;52783;50.502;8.190;2022-09-29T00:36:16;9.48;;;3.80;;
66012;SDS011;52783;50.502;8.190;2022-09-29T00:38:43;9.15;;;4.85;;
66012;SDS011;52783;50.502;8.190;2022-09-29T00:41:17;5.50;;;4.53;;
66012;SDS011;52783;50.502;8.190;2022-09-29T00:43:58;8.18;;;4.32;;
66012;SDS011;52783;50.502;8.190;2022-09-29T00:52:19;6.47;;;4.38;;
66012;SDS011;52783;50.502;8.190;2022-09-29T00:54:49;6.70;;;4.63;;
66012;SDS011;52783;50.502;8.190;2022-09-29T00:57:41;6.80;;;4.25;;
66012;SDS011;52783;50.502;8.190;2022-09-29T01:00:13;6.57;;;4.65;;
66012;SDS011;52783;50.502;8.190;2022-09-29T01:02:44;7.57;;;4.15;;
66012;SDS011;52783;50.502;8.190;2022-09-29T01:05:23;5.28;;;3.88;;
66012;SDS011;52783;50.502;8.190;2022-09-29T01:07:53;5.38;;;3.97;;
66012;SDS011;52783;50.502;8.190;2022-09-29T01:10:19;5.72;;;4.07;;
66012;SDS011;52783;50.502;8.190;2022-09-29T01:12:45;5.88;;;4.05;;
66012;SDS011;52783;50.502;8.190;2022-09-29T01:15:13;4.32;;;3.88;;
66012;SDS011;52783;50.502;8.190;2022-09-29T01:17:41;5.18;;;3.88;;
66012;SDS011;52783;50.502;8.190;2022-09-29T01:20:11;7.18;;;3.60;;
66012;SDS011;52783;50.502;8.190;2022-09-29T01:22:50;4.28;;;3.83;;
66012;SDS011;52783;50.502;8.190;2022-09-29T01:28:38;6.50;;;4.18;;
66012;SDS011;52783;50.502;8.190;2022-09-29T01:34:56;6.07;;;4.38;;
66012;SDS011;52783;50.502;8.190;2022-09-29T01:40:34;7.90;;;3.90;;
66012;SDS011;52783;50.502;8.190;2022-09-29T01:43:32;6.78;;;3.55;;
66012;SDS011;52783;50.502;8.190;2022-09-29T01:46:03;11.40;;;4.40;;
66012;SDS011;52783;50.502;8.190;2022-09-29T01:48:42;8.77;;;4.53;;
66012;SDS011;52783;50.502;8.190;2022-09-29T01:51:12;8.57;;;5.32;;
66012;SDS011;52783;50.502;8.190;2022-09-29T01:53:45;8.25;;;5.40;;
66012;SDS011;52783;50.502;8.190;2022-09-29T01:56:28;12.57;;;5.97;;
66012;SDS011;52783;50.502;8.190;2022-09-29T01:59:14;11.48;;;5.47;;
66012;SDS011;52783;50.502;8.190;2022-09-29T02:01:50;22.08;;;5.25;;
66012;SDS011;52783;50.502;8.190;2022-09-29T02:04:23;34.08;;;6.45;;
66012;SDS011;52783;50.502;8.190;2022-09-29T02:06:56;21.17;;;6.85;;
66012;SDS011;52783;50.502;8.190;2022-09-29T02:09:30;68.88;;;8.55;;
66012;SDS011;52783;50.502;8.190;2022-09-29T02:12:03;89.13;;;8.77;;
66012;SDS011;52783;50.502;8.190;2022-09-29T02:14:32;62.53;;;8.35;;
66012;SDS011;52783;50.502;8.190;2022-09-29T02:17:05;57.08;;;7.80;;
66012;SDS011;52783;50.502;8.190;2022-09-29T02:19:45;84.10;;;9.30;;
66012;SDS011;52783;50.502;8.190;2022-09-29T02:22:13;345.33;;;14.95;;
66012;SDS011;52783;50.502;8.190;2022-09-29T02:24:39;220.75;;;11.05;;
66012;SDS011;52783;50.502;8.190;2022-09-29T02:27:05;194.05;;;10.15;;
66012;SDS011;52783;50.502;8.190;2022-09-29T02:29:31;255.27;;;9.82;;
66012;SDS011;52783;50.502;8.190;2022-09-29T02:31:58;186.32;;;9.90;;
66012;SDS011;52783;50.502;8.190;2022-09-29T02:34:27;164.90;;;10.40;;
66012;SDS011;52783;50.502;8.190;2022-09-29T02:37:13;159.20;;;10.02;;
66012;SDS011;52783;50.502;8.190;2022-09-29T02:39:48;166.18;;;8.82;;
66012;SDS011;52783;50.502;8.190;2022-09-29T02:45:16;114.47;;;7.25;;
66012;SDS011;52783;50.502;8.190;2022-09-29T02:58:41;64.93;;;8.07;;
66012;SDS011;52783;50.502;8.190;2022-09-29T03:01:13;56.25;;;6.82;;
66012;SDS011;52783;50.502;8.190;2022-09-29T03:03:40;59.05;;;6.50;;
66012;SDS011;52783;50.502;8.190;2022-09-29T03:06:06;35.38;;;6.03;;
66012;SDS011;52783;50.502;8.190;2022-09-29T03:08:32;40.10;;;7.10;;
66012;SDS011;52783;50.502;8.190;2022-09-29T03:10:57;58.35;;;8.20;;
66012;SDS011;52783;50.502;8.190;2022-09-29T03:13:23;37.88;;;7.55;;
66012;SDS011;52783;50.502;8.190;2022-09-29T03:15:49;32.60;;;6.97;;
66012;SDS011;52783;50.502;8.190;2022-09-29T03:18:14;42.97;;;7.18;;
66012;SDS011;52783;50.502;8.190;2022-09-29T03:20:40;40.15;;;6.95;;
66012;SDS011;52783;50.502;8.190;2022-09-29T03:23:05;45.45;;;8.13;;
66012;SDS011;52783;50.502;8.190;2022-09-29T03:25:31;12.05;;;6.53;;
66012;SDS011;52783;50.502;8.190;2022-09-29T03:27:57;26.98;;;7.15;;
66012;SDS011;52783;50.502;8.190;2022-09-29T03:30:22;23.88;;;7.28;;
66012;SDS011;52783;50.502;8.190;2022-09-29T03:32:48;64.43;;;6.50;;
66012;SDS011;52783;50.502;8.190;2022-09-29T03:35:13;32.60;;;6.82;;
66012;SDS011;52783;50.502;8.190;2022-09-29T03:37:39;18.75;;;6.40;;
66012;SDS011;52783;50.502;8.190;2022-09-29T03:40:05;217.02;;;7.82;;
66012;SDS011;52783;50.502;8.190;2022-09-29T03:42:31;217.05;;;7.90;;
66012;SDS011;52783;50.502;8.190;2022-09-29T03:44:57;135.18;;;8.70;;
66012;SDS011;52783;50.502;8.190;2022-09-29T03:47:22;114.95;;;9.77;;
66012;SDS011;52783;50.502;8.190;2022-09-29T03:49:48;141.07;;;6.50;;
66012;SDS011;52783;50.502;8.190;2022-09-29T03:52:13;81.53;;;5.50;;
66012;SDS011;52783;50.502;8.190;2022-09-29T03:54:39;31.48;;;5.30;;
66012;SDS011;52783;50.502;8.190;2022-09-29T03:57:05;48.72;;;5.32;;
66012;SDS011;52783;50.502;8.190;2022-09-29T03:59:30;34.25;;;5.53;;
66012;SDS011;52783;50.502;8.190;2022-09-29T04:01:56;35.72;;;6.13;;
66012;SDS011;52783;50.502;8.190;2022-09-29T04:04:21;74.38;;;6.60;;
66012;SDS011;52783;50.502;8.190;2022-09-29T04:06:47;9.07;;;5.75;;
66012;SDS011;52783;50.502;8.190;2022-09-29T04:09:12;29.75;;;7.75;;
66012;SDS011;52783;50.502;8.190;2022-09-29T04:11:38;40.95;;;7.65;;
66012;SDS011;52783;50.502;8.190;2022-09-29T04:14:04;70.32;;;10.27;;
66012;SDS011;52783;50.502;8.190;2022-09-29T04:16:29;69.60;;;9.95;;
66012;SDS011;52783;50.502;8.190;2022-09-29T04:18:55;92.93;;;9.27;;
66012;SDS011;52783;50.502;8.190;2022-09-29T04:21:21;138.07;;;8.45;;
66012;SDS011;52783;50.502;8.190;2022-09-29T04:23:46;136.48;;;10.00;;
66012;SDS011;52783;50.502;8.190;2022-09-29T04:26:12;108.43;;;9.32;;
66012;SDS011;52783;50.502;8.190;2022-09-29T04:28:39;134.50;;;11.93;;
66012;SDS011;52783;50.502;8.190;2022-09-29T04:31:05;159.75;;;9.55;;
66012;SDS011;52783;50.502;8.190;2022-09-29T04:33:31;110.65;;;9.23;;
66012;SDS011;52783;50.502;8.190;2022-09-29T04:35:57;208.15;;;10.38;;
66012;SDS011;52783;50.502;8.190;2022-09-29T04:38:23;110.25;;;9.18;;
66012;SDS011;52783;50.502;8.190;2022-09-29T04:40:49;126.65;;;9.38;;
66012;SDS011;52783;50.502;8.190;2022-09-29T04:43:15;81.63;;;8.48;;
66012;SDS011;52783;50.502;8.190;2022-09-29T04:45:40;128.88;;;8.25;;
66012;SDS011;52783;50.502;8.190;2022-09-29T04:48:06;103.63;;;8.05;;
66012;SDS011;52783;50.502;8.190;2022-09-29T04:50:32;91.43;;;8.10;;
66012;SDS011;52783;50.502;8.190;2022-09-29T04:52:58;91.65;;;8.43;;
66012;SDS011;52783;50.502;8.190;2022-09-29T04:55:24;55.67;;;8.88;;
66012;SDS011;52783;50.502;8.190;2022-09-29T04:57:49;32.05;;;7.65;;
66012;SDS011;52783;50.502;8.190;2022-09-29T05:00:15;68.38;;;9.38;;
66012;SDS011;52783;50.502;8.190;2022-09-29T05:02:40;64.40;;;8.32;;
66012;SDS011;52783;50.502;8.190;2022-09-29T05:05:06;66.43;;;7.82;;
66012;SDS011;52783;50.502;8.190;2022-09-29T05:07:33;54.08;;;7.35;;
66012;SDS011;52783;50.502;8.190;2022-09-29T05:09:59;40.17;;;6.88;;
66012;SDS011;52783;50.502;8.190;2022-09-29T05:12:24;64.82;;;7.55;;
66012;SDS011;52783;50.502;8.190;2022-09-29T05:14:50;46.72;;;6.90;;
66012;SDS011;52783;50.502;8.190;2022-09-29T05:17:15;44.55;;;7.13;;
66012;SDS011;52783;50.502;8.190;2022-09-29T05:19:41;14.25;;;7.40;;
66012;SDS011;52783;50.502;8.190;2022-09-29T05:22:06;16.90;;;6.75;;
66012;SDS011;52783;50.502;8.190;2022-09-29T05:24:32;36.25;;;7.00;;
66012;SDS011;52783;50.502;8.190;2022-09-29T05:26:57;45.83;;;5.78;;
66012;SDS011;52783;50.502;8.190;2022-09-29T05:29:23;58.95;;;5.78;;
66012;SDS011;52783;50.502;8.190;2022-09-29T05:31:49;53.63;;;5.72;;
66012;SDS011;52783;50.502;8.190;2022-09-29T05:34:15;68.60;;;5.95;;
66012;SDS011;52783;50.502;8.190;2022-09-29T05:36:41;42.47;;;5.75;;
66012;SDS011;52783;50.502;8.190;2022-09-29T05:39:07;103.53;;;7.13;;
66012;SDS011;52783;50.502;8.190;2022-09-29T05:41:32;55.90;;;6.60;;
66012;SDS011;52783;50.502;8.190;2022-09-29T05:43:59;126.38;;;8.13;;
66012;SDS011;52783;50.502;8.190;2022-09-29T05:46:25;132.32;;;8.10;;
66012;SDS011;52783;50.502;8.190;2022-09-29T05:48:51;94.85;;;6.57;;
66012;SDS011;52783;50.502;8.190;2022-09-29T05:51:18;147.52;;;8.85;;
66012;SDS011;52783;50.502;8.190;2022-09-29T05:53:46;211.70;;;8.48;;
66012;SDS011;52783;50.502;8.190;2022-09-29T05:56:15;121.13;;;6.70;;
66012;SDS011;52783;50.502;8.190;2022-09-29T05:58:45;180.95;;;8.00;;
66012;SDS011;52783;50.502;8.190;2022-09-29T06:01:12;256.38;;;9.20;;
66012;SDS011;52783;50.502;8.190;2022-09-29T06:03:39;47.42;;;6.28;;
66012;SDS011;52783;50.502;8.190;2022-09-29T06:08:38;129.52;;;5.88;;
66012;SDS011;52783;50.502;8.190;2022-09-29T06:11:24;153.10;;;8.13;;
66012;SDS011;52783;50.502;8.190;2022-09-29T06:13:55;68.80;;;6.13;;
66012;SDS011;52783;50.502;8.190;2022-09-29T06:16:22;159.20;;;7.57;;
66012;SDS011;52783;50.502;8.190;2022-09-29T06:18:49;171.13;;;9.90;;
66012;SDS011;52783;50.502;8.190;2022-09-29T06:21:19;98.00;;;6.38;;
66012;SDS011;52783;50.502;8.190;2022-09-29T06:23:47;106.50;;;5.03;;
66012;SDS011;52783;50.502;8.190;2022-09-29T06:26:14;126.07;;;8.25;;
66012;SDS011;52783;50.502;8.190;2022-09-29T06:28:40;133.15;;;9.65;;
66012;SDS011;52783;50.502;8.190;2022-09-29T06:31:10;124.95;;;5.20;;
66012;SDS011;52783;50.502;8.190;2022-09-29T06:33:37;172.00;;;6.53;;
66012;SDS011;52783;50.502;8.190;2022-09-29T06:36:24;120.60;;;8.18;;
66012;SDS011;52783;50.502;8.190;2022-09-29T06:39:10;102.15;;;4.95;;
66012;SDS011;52783;50.502;8.190;2022-09-29T06:41:38;75.80;;;9.45;;
66012;SDS011;52783;50.502;8.190;2022-09-29T06:44:04;42.85;;;6.00;;
66012;SDS011;52783;50.502;8.190;2022-09-29T06:46:29;66.15;;;5.40;;
66012;SDS011;52783;50.502;8.190;2022-09-29T06:48:55;45.88;;;5.38;;
66012;SDS011;52783;50.502;8.190;2022-09-29T06:51:21;45.17;;;5.63;;
66012;SDS011;52783;50.502;8.190;2022-09-29T06:53:48;50.05;;;7.20;;
66012;SDS011;52783;50.502;8.190;2022-09-29T06:56:15;50.17;;;6.80;;
66012;SDS011;52783;50.502;8.190;2022-09-29T06:58:42;28.42;;;6.00;;
66012;SDS011;52783;50.502;8.190;2022-09-29T07:01:08;65.70;;;5.97;;
66012;SDS011;52783;50.502;8.190;2022-09-29T07:03:34;54.40;;;4.90;;
66012;SDS011;52783;50.502;8.190;2022-09-29T07:06:03;76.75;;;7.53;;
66012;SDS011;52783;50.502;8.190;2022-09-29T07:08:30;36.80;;;4.95;;
66012;SDS011;52783;50.502;8.190;2022-09-29T07:10:56;29.85;;;4.22;;
66012;SDS011;52783;50.502;8.190;2022-09-29T07:13:23;43.95;;;6.00;;
66012;SDS011;52783;50.502;8.190;2022-09-29T07:15:49;53.95;;;7.15;;
66012;SDS011;52783;50.502;8.190;2022-09-29T07:18:15;61.60;;;4.40;;
66012;SDS011;52783;50.502;8.190;2022-09-29T07:20:40;67.15;;;5.30;;
66012;SDS011;52783;50.502;8.190;2022-09-29T07:23:06;27.13;;;4.07;;
66012;SDS011;52783;50.502;8.190;2022-09-29T07:25:34;117.28;;;4.93;;
66012;SDS011;52783;50.502;8.190;2022-09-29T07:28:00;191.00;;;7.13;;
66012;SDS011;52783;50.502;8.190;2022-09-29T07:30:25;33.38;;;3.75;;
66012;SDS011;52783;50.502;8.190;2022-09-29T07:32:52;57.50;;;5.78;;
66012;SDS011;52783;50.502;8.190;2022-09-29T07:35:19;60.40;;;4.57;;
66012;SDS011;52783;50.502;8.190;2022-09-29T07:37:51;50.63;;;4.20;;
66012;SDS011;52783;50.502;8.190;2022-09-29T07:40:19;31.83;;;4.30;;
66012;SDS011;52783;50.502;8.190;2022-09-29T07:42:45;136.60;;;4.70;;
66012;SDS011;52783;50.502;8.190;2022-09-29T07:45:11;129.95;;;6.25;;
66012;SDS011;52783;50.502;8.190;2022-09-29T07:47:37;170.93;;;5.53;;
66012;SDS011;52783;50.502;8.190;2022-09-29T07:50:02;21.15;;;3.50;;
66012;SDS011;52783;50.502;8.190;2022-09-29T07:52:28;134.32;;;7.05;;
66012;SDS011;52783;50.502;8.190;2022-09-29T07:54:54;134.00;;;5.35;;
66012;SDS011;52783;50.502;8.190;2022-09-29T07:57:19;6.70;;;3.40;;
66012;SDS011;52783;50.502;8.190;2022-09-29T07:59:45;169.05;;;9.90;;
66012;SDS011;52783;50.502;8.190;2022-09-29T08:02:10;119.35;;;7.00;;
66012;SDS011;52783;50.502;8.190;2022-09-29T08:04:36;93.25;;;4.63;;
66012;SDS011;52783;50.502;8.190;2022-09-29T08:07:02;56.20;;;3.60;;
66012;SDS011;52783;50.502;8.190;2022-09-29T08:09:27;55.90;;;4.43;;
66012;SDS011;52783;50.502;8.190;2022-09-29T08:11:53;82.32;;;4.95;;
66012;SDS011;52783;50.502;8.190;2022-09-29T08:14:18;16.75;;;3.00;;
66012;SDS011;52783;50.502;8.190;2022-09-29T08:16:44;15.75;;;3.08;;
66012;SDS011;52783;50.502;8.190;2022-09-29T08:19:09;18.23;;;3.70;;
66012;SDS011;52783;50.502;8.190;2022-09-29T08:21:36;8.55;;;3.15;;
66012;SDS011;52783;50.502;8.190;2022-09-29T08:24:02;3.25;;;2.92;;
66012;SDS011;52783;50.502;8.190;2022-09-29T08:26:34;6.35;;;3.67;;
66012;SDS011;52783;50.502;8.190;2022-09-29T08:29:01;9.30;;;3.60;;
66012;SDS011;52783;50.502;8.190;2022-09-29T08:31:27;8.98;;;4.47;;
66012;SDS011;52783;50.502;8.190;2022-09-29T08:33:53;5.43;;;4.13;;
66012;SDS011;52783;50.502;8.190;2022-09-29T08:36:22;12.13;;;4.35;;
66012;SDS011;52783;50.502;8.190;2022-09-29T08:38:48;9.27;;;4.63;;
66012;SDS011;52783;50.502;8.190;2022-09-29T08:44:04;8.52;;;4.15;;
66012;SDS011;52783;50.502;8.190;2022-09-29T08:46:43;27.70;;;4.72;;
66012;SDS011;52783;50.502;8.190;2022-09-29T08:49:18;11.57;;;3.90;;
66012;SDS011;52783;50.502;8.190;2022-09-29T08:51:54;5.68;;;4.03;;
66012;SDS011;52783;50.502;8.190;2022-09-29T08:54:28;9.38;;;3.70;;
66012;SDS011;52783;50.502;8.190;2022-09-29T08:56:55;5.80;;;4.55;;
66012;SDS011;52783;50.502;8.190;2022-09-29T08:59:22;6.32;;;4.35;;
66012;SDS011;52783;50.502;8.190;2022-09-29T09:01:54;4.00;;;3.58;;
66012;SDS011;52783;50.502;8.190;2022-09-29T09:07:56;100.18;;;5.47;;
66012;SDS011;52783;50.502;8.190;2022-09-29T09:10:30;5.38;;;3.53;;
66012;SDS011;52783;50.502;8.190;2022-09-29T09:13:25;4.63;;;3.70;;
66012;SDS011;52783;50.502;8.190;2022-09-29T09:21:14;9.88;;;5.00;;
66012;SDS011;52783;50.502;8.190;2022-09-29T09:23:48;8.77;;;4.20;;
66012;SDS011;52783;50.502;8.190;2022-09-29T09:26:42;15.30;;;3.50;;
66012;SDS011;52783;50.502;8.190;2022-09-29T09:29:14;4.30;;;3.50;;
66012;SDS011;52783;50.502;8.190;2022-09-29T09:31:48;4.93;;;3.72;;
66012;SDS011;52783;50.502;8.190;2022-09-29T09:34:24;9.38;;;3.50;;
66012;SDS011;52783;50.502;8.190;2022-09-29T09:39:30;5.40;;;3.50;;
66012;SDS011;52783;50.502;8.190;2022-09-29T09:41:59;3.92;;;3.20;;
66012;SDS011;52783;50.502;8.190;2022-09-29T09:47:22;4.57;;;3.50;;
66012;SDS011;52783;50.502;8.190;2022-09-29T09:49:57;4.30;;;3.78;;
66012;SDS011;52783;50.502;8.190;2022-09-29T09:52:38;6.32;;;3.70;;
66012;SDS011;52783;50.502;8.190;2022-09-29T09:55:05;4.38;;;3.60;;
66012;SDS011;52783;50.502;8.190;2022-09-29T10:00:33;4.38;;;3.38;;
66012;SDS011;52783;50.502;8.190;2022-09-29T10:03:08;9.57;;;3.63;;
66012;SDS011;52783;50.502;8.190;2022-09-29T10:05:46;4.43;;;3.70;;
66012;SDS011;52783;50.502;8.190;2022-09-29T10:10:51;6.03;;;3.95;;
66012;SDS011;52783;50.502;8.190;2022-09-29T10:13:18;4.72;;;4.00;;
66012;SDS011;52783;50.502;8.190;2022-09-29T10:18:29;6.03;;;3.50;;
66012;SDS011;52783;50.502;8.190;2022-09-29T10:23:49;5.22;;;3.50;;
66012;SDS011;52783;50.502;8.190;2022-09-29T10:26:22;5.45;;;3.67;;
66012;SDS011;52783;50.502;8.190;2022-09-29T10:28:52;5.47;;;3.55;;
66012;SDS011;52783;50.502;8.190;2022-09-29T10:31:32;3.95;;;3.35;;
66012;SDS011;52783;50.502;8.190;2022-09-29T10:34:01;3.90;;;2.90;;
66012;SDS011;52783;50.502;8.190;2022-09-29T10:36:52;3.65;;;3.17;;
66012;SDS011;52783;50.502;8.190;2022-09-29T10:42:14;5.70;;;2.97;;
66012;SDS011;52783;50.502;8.190;2022-09-29T10:44:52;4.45;;;2.70;;
66012;SDS011;52783;50.502;8.190;2022-09-29T10:47:24;4.30;;;3.05;;
66012;SDS011;52783;50.502;8.190;2022-09-29T10:50:06;3.20;;;2.78;;
66012;SDS011;52783;50.502;8.190;2022-09-29T10:52:52;4.38;;;2.67;;
66012;SDS011;52783;50.502;8.190;2022-09-29T10:55:20;3.75;;;2.38;;
66012;SDS011;52783;50.502;8.190;2022-09-29T10:57:50;4.35;;;2.30;;
66012;SDS011;52783;50.502;8.190;2022-09-29T11:00:23;4.63;;;2.65;;
66012;SDS011;52783;50.502;8.190;2022-09-29T11:02:50;2.88;;;2.28;;
66012;SDS011;52783;50.502;8.190;2022-09-29T11:05:20;6.03;;;2.78;;
66012;SDS011;52783;50.502;8.190;2022-09-29T11:07:48;6.38;;;2.70;;
66012;SDS011;52783;50.502;8.190;2022-09-29T11:10:31;3.88;;;2.42;;
66012;SDS011;52783;50.502;8.190;2022-09-29T11:13:13;7.75;;;2.72;;
66012;SDS011;52783;50.502;8.190;2022-09-29T11:15:50;6.53;;;2.53;;
66012;SDS011;52783;50.502;8.190;2022-09-29T11:18:24;5.50;;;2.63;;
66012;SDS011;52783;50.502;8.190;2022-09-29T11:26:44;4.80;;;2.55;;
66012;SDS011;52783;50.502;8.190;2022-09-29T11:32:04;8.40;;;2.95;;
66012;SDS011;52783;50.502;8.190;2022-09-29T11:34:45;6.65;;;2.67;;
66012;SDS011;52783;50.502;8.190;2022-09-29T11:40:10;5.63;;;2.88;;
66012;SDS011;52783;50.502;8.190;2022-09-29T11:46:26;7.90;;;3.20;;
66012;SDS011;52783;50.502;8.190;2022-09-29T11:49:24;5.72;;;2.95;;
66012;SDS011;52783;50.502;8.190;2022-09-29T12:00:20;4.70;;;2.78;;
66012;SDS011;52783;50.502;8.190;2022-09-29T12:06:06;6.10;;;2.78;;
66012;SDS011;52783;50.502;8.190;2022-09-29T12:17:21;4.80;;;2.33;;
66012;SDS011;52783;50.502;8.190;2022-09-29T12:19:53;7.75;;;2.55;;
66012;SDS011;52783;50.502;8.190;2022-09-29T12:22:47;4.30;;;2.55;;
66012;SDS011;52783;50.502;8.190;2022-09-29T12:25:15;5.97;;;2.67;;
66012;SDS011;52783;50.502;8.190;2022-09-29T12:27:44;3.65;;;2.20;;
66012;SDS011;52783;50.502;8.190;2022-09-29T12:30:25;4.35;;;2.17;;
66012;SDS011;52783;50.502;8.190;2022-09-29T12:32:58;3.70;;;2.30;;
66012;SDS011;52783;50.502;8.190;2022-09-29T12:38:33;9.55;;;2.58;;
66012;SDS011;52783;50.502;8.190;2022-09-29T12:43:40;5.95;;;2.40;;
66012;SDS011;52783;50.502;8.190;2022-09-29T12:46:39;6.32;;;2.10;;
66012;SDS011;52783;50.502;8.190;2022-09-29T12:49:17;6.63;;;2.20;;
66012;SDS011;52783;50.502;8.190;2022-09-29T12:52:01;4.15;;;2.20;;
66012;SDS011;52783;50.502;8.190;2022-09-29T12:54:31;9.32;;;2.10;;
66012;SDS011;52783;50.502;8.190;2022-09-29T12:57:23;6.50;;;2.17;;
66012;SDS011;52783;50.502;8.190;2022-09-29T12:59:57;3.97;;;2.20;;
66012;SDS011;52783;50.502;8.190;2022-09-29T13:13:37;7.43;;;1.90;;
66012;SDS011;52783;50.502;8.190;2022-09-29T13:16:41;2.30;;;1.73;;
66012;SDS011;52783;50.502;8.190;2022-09-29T13:27:50;2.53;;;1.60;;
66012;SDS011;52783;50.502;8.190;2022-09-29T13:30:23;5.00;;;1.77;;
66012;SDS011;52783;50.502;8.190;2022-09-29T13:32:57;3.67;;;1.42;;
66012;SDS011;52783;50.502;8.190;2022-09-29T13:35:43;7.05;;;1.50;;
66012;SDS011;52783;50.502;8.190;2022-09-29T13:38:30;4.30;;;1.80;;
66012;SDS011;52783;50.502;8.190;2022-09-29T13:48:51;4.20;;;1.67;;
66012;SDS011;52783;50.502;8.190;2022-09-29T13:51:22;4.25;;;1.42;;
66012;SDS011;52783;50.502;8.190;2022-09-29T13:54:12;3.03;;;1.70;;
66012;SDS011;52783;50.502;8.190;2022-09-29T13:56:47;7.70;;;2.20;;
66012;SDS011;52783;50.502;8.190;2022-09-29T13:59:14;1.92;;;1.40;;
66012;SDS011;52783;50.502;8.190;2022-09-29T14:01:45;4.18;;;1.67;;
66012;SDS011;52783;50.502;8.190;2022-09-29T14:06:58;3.50;;;1.50;;
66012;SDS011;52783;50.502;8.190;2022-09-29T14:09:29;2.78;;;1.30;;
66012;SDS011;52783;50.502;8.190;2022-09-29T14:11:58;2.25;;;1.60;;
66012;SDS011;52783;50.502;8.190;2022-09-29T14:14:29;5.20;;;1.42;;
66012;SDS011;52783;50.502;8.190;2022-09-29T14:17:16;6.40;;;1.50;;
66012;SDS011;52783;50.502;8.190;2022-09-29T14:20:07;3.55;;;1.45;;
66012;SDS011;52783;50.502;8.190;2022-09-29T14:22:50;2.50;;;1.40;;
66012;SDS011;52783;50.502;8.190;2022-09-29T14:35:41;5.80;;;1.77;;
66012;SDS011;52783;50.502;8.190;2022-09-29T14:38:21;4.22;;;1.65;;
66012;SDS011;52783;50.502;8.190;2022-09-29T14:49:18;3.00;;;1.75;;
66012;SDS011;52783;50.502;8.190;2022-09-29T14:52:15;5.07;;;1.65;;
66012;SDS011;52783;50.502;8.190;2022-09-29T14:58:20;5.10;;;2.00;;
66012;SDS011;52783;50.502;8.190;2022-09-29T15:03:30;2.85;;;1.77;;
66012;SDS011;52783;50.502;8.190;2022-09-29T15:06:05;2.97;;;1.42;;
66012;SDS011;52783;50.502;8.190;2022-09-29T15:08:42;2.33;;;1.40;;
66012;SDS011;52783;50.502;8.190;2022-09-29T15:14:15;3.45;;;1.50;;
66012;SDS011;52783;50.502;8.190;2022-09-29T15:16:48;2.28;;;1.42;;
66012;SDS011;52783;50.502;8.190;2022-09-29T15:19:43;2.17;;;1.40;;
66012;SDS011;52783;50.502;8.190;2022-09-29T15:28:02;5.13;;;1.52;;
66012;SDS011;52783;50.502;8.190;2022-09-29T15:30:33;1.38;;;1.27;;
66012;SDS011;52783;50.502;8.190;2022-09-29T15:33:08;2.70;;;1.30;;
66012;SDS011;52783;50.502;8.190;2022-09-29T15:35:42;3.22;;;1.60;;
66012;SDS011;52783;50.502;8.190;2022-09-29T15:40:34;2.67;;;1.20;;
66012;SDS011;52783;50.502;8.190;2022-09-29T15:43:01;4.38;;;1.15;;
66012;SDS011;52783;50.502;8.190;2022-09-29T15:45:28;2.47;;;1.52;;
66012;SDS011;52783;50.502;8.190;2022-09-29T15:47:57;4.25;;;1.38;;
66012;SDS011;52783;50.502;8.190;2022-09-29T15:50:30;1.33;;;1.23;;
66012;SDS011;52783;50.502;8.190;2022-09-29T15:52:59;2.33;;;1.60;;
66012;SDS011;52783;50.502;8.190;2022-09-29T15:55:27;11.32;;;1.92;;
66012;SDS011;52783;50.502;8.190;2022-09-29T15:57:54;3.10;;;2.00;;
66012;SDS011;52783;50.502;8.190;2022-09-29T16:05:36;6.28;;;2.90;;
66012;SDS011;52783;50.502;8.190;2022-09-29T16:08:17;7.07;;;2.97;;
66012;SDS011;52783;50.502;8.190;2022-09-29T16:11:30;6.65;;;2.20;;
66012;SDS011;52783;50.502;8.190;2022-09-29T16:13:46;4.22;;;2.00;;
66012;SDS011;52783;50.502;8.190;2022-09-29T16:16:27;2.40;;;1.70;;
66012;SDS011;52783;50.502;8.190;2022-09-29T16:18:58;4.25;;;2.30;;
66012;SDS011;52783;50.502;8.190;2022-09-29T16:21:30;13.45;;;2.55;;
66012;SDS011;52783;50.502;8.190;2022-09-29T16:26:41;2.33;;;1.70;;
66012;SDS011;52783;50.502;8.190;2022-09-29T16:31:40;2.60;;;1.50;;
66012;SDS011;52783;50.502;8.190;2022-09-29T16:34:21;1.42;;;1.30;;
66012;SDS011;52783;50.502;8.190;2022-09-29T16:36:51;3.75;;;1.70;;
66012;SDS011;52783;50.502;8.190;2022-09-29T16:39:29;6.53;;;1.75;;
66012;SDS011;52783;50.502;8.190;2022-09-29T16:41:58;3.42;;;3.00;;
66012;SDS011;52783;50.502;8.190;2022-09-29T16:46:57;12.85;;;3.58;;
66012;SDS011;52783;50.502;8.190;2022-09-29T16:49:50;6.63;;;3.83;;
66012;SDS011;52783;50.502;8.190;2022-09-29T16:52:20;5.22;;;3.50;;
66012;SDS011;52783;50.502;8.190;2022-09-29T16:54:50;6.65;;;2.60;;
66012;SDS011;52783;50.502;8.190;2022-09-29T16:57:18;5.18;;;2.35;;
66012;SDS011;52783;50.502;8.190;2022-09-29T16:59:54;2.85;;;1.98;;
66012;SDS011;52783;50.502;8.190;2022-09-29T17:02:25;5.15;;;2.20;;
66012;SDS011;52783;50.502;8.190;2022-09-29T17:04:52;5.78;;;2.50;;
66012;SDS011;52783;50.502;8.190;2022-09-29T17:07:19;8.25;;;1.95;;
66012;SDS011;52783;50.502;8.190;2022-09-29T17:09:52;8.43;;;1.75;;
66012;SDS011;52783;50.502;8.190;2022-09-29T17:12:20;7.60;;;2.25;;
66012;SDS011;52783;50.502;8.190;2022-09-29T17:14:47;7.45;;;3.38;;
66012;SDS011;52783;50.502;8.190;2022-09-29T17:24:50;3.47;;;2.15;;
66012;SDS011;52783;50.502;8.190;2022-09-29T17:27:15;3.45;;;2.05;;
66012;SDS011;52783;50.502;8.190;2022-09-29T17:29:59;4.93;;;1.63;;
66012;SDS011;52783;50.502;8.190;2022-09-29T17:32:25;4.30;;;1.70;;
66012;SDS011;52783;50.502;8.190;2022-09-29T17:34:51;6.55;;;2.20;;
66012;SDS011;52783;50.502;8.190;2022-09-29T17:37:16;3.95;;;2.28;;
66012;SDS011;52783;50.502;8.190;2022-09-29T17:39:43;8.57;;;3.55;;
66012;SDS011;52783;50.502;8.190;2022-09-29T17:42:09;5.05;;;3.60;;
66012;SDS011;52783;50.502;8.190;2022-09-29T17:44:35;5.80;;;4.38;;
66012;SDS011;52783;50.502;8.190;2022-09-29T17:47:04;9.20;;;3.15;;
66012;SDS011;52783;50.502;8.190;2022-09-29T17:49:32;7.38;;;3.20;;
66012;SDS011;52783;50.502;8.190;2022-09-29T17:51:59;7.88;;;2.45;;
66012;SDS011;52783;50.502;8.190;2022-09-29T17:54:25;3.88;;;2.08;;
66012;SDS011;52783;50.502;8.190;2022-09-29T17:56:51;4.90;;;2.30;;
66012;SDS011;52783;50.502;8.190;2022-09-29T17:59:17;5.32;;;2.28;;
66012;SDS011;52783;50.502;8.190;2022-09-29T18:01:42;2.83;;;1.98;;
66012;SDS011;52783;50.502;8.190;2022-09-29T18:04:08;3.35;;;2.78;;
66012;SDS011;52783;50.502;8.190;2022-09-29T18:06:35;3.30;;;2.30;;
66012;SDS011;52783;50.502;8.190;2022-09-29T18:09:02;6.57;;;2.45;;
66012;SDS011;52783;50.502;8.190;2022-09-29T18:11:38;2.63;;;1.90;;
66012;SDS011;52783;50.502;8.190;2022-09-29T18:14:03;2.40;;;2.20;;